Flight Track Log - Related Links

Times and Time Zones

All times are in EST time to prevent confusion due to time zone crossing. See the UAL4678 flight status page for this flight to view local times or setup timezone preferences in your user account.

Time Position Orientation Groundspeed Altitude Reporting Facility
EST Latitude Longitude Course Direction KTS MPH feet Rate Location/Type
Thu 12:14:57 PM 44.9000 -93.2833 154° Southeast 193 222 3,100  Level Minneapolis TRACON
Thu 12:15:57 PM 44.8667 -93.3500 235° Southwest 249 287 5,400 2,050 Climbing Minneapolis TRACON
Thu 12:16:57 PM 44.8167 -93.3000 145° Southeast 253 291 7,200 2,050 Climbing Minneapolis TRACON
Thu 12:17:57 PM 44.7667 -93.2167 130° Southeast 285 328 9,500 1,748 Climbing Minneapolis TRACON
Thu 12:19:00 PM 44.7539 -92.2352 122° Southeast  Level Estimated
Thu 12:19:28 PM 44.6950 -93.0753 125° Southeast 314 361 11,600  Level Minneapolis Center
Thu 12:20:00 PM 44.6474 -92.1618 154° Southeast  Level FlightAware Approximate
Thu 12:20:29 PM 44.6328 -92.9650 128° Southeast 354 407 12,800  Level Minneapolis Center
Thu 12:21:31 PM 44.5675 -92.8483 128° Southeast 377 434 13,900 1,113 Climbing Minneapolis Center
Thu 12:22:33 PM 44.4986 -92.7269 128° Southeast 396 456 15,100 1,122 Climbing Minneapolis Center
Thu 12:23:34 PM 44.4283 -92.6036 129° Southeast 404 465 16,200 1,220 Climbing Minneapolis Center
Thu 12:24:36 PM 44.3425 -92.4503 128° Southeast 418 481 17,600 1,161 Climbing Minneapolis Center
Thu 12:25:38 PM 44.2792 -92.3136 123° Southeast 418 481 18,600 927 Climbing Minneapolis Center
Thu 12:26:39 PM 44.2186 -92.1664 120° Southeast 432 497 19,500 878 Climbing Minneapolis Center
Thu 12:27:41 PM 44.1533 -92.0178 121° Southeast 444 511 20,400 823 Climbing Minneapolis Center
Thu 12:28:43 PM 44.0867 -91.8667 122° Southeast 453 521 21,200 829 Climbing Minneapolis Center
Thu 12:29:44 PM 44.0183 -91.7119 122° Southeast 465 535 22,100 829 Climbing Minneapolis Center
Thu 12:30:46 PM 43.9453 -91.5458 121° Southeast 470 541 22,900 919 Climbing Minneapolis Center
Thu 12:31:48 PM 43.8608 -91.3800 125° Southeast 476 548 24,000 927 Climbing Minneapolis Center
Thu 12:32:49 PM 43.7756 -91.2450 131° Southeast 471 542 24,800 780 Climbing Minneapolis Center
Thu 12:33:51 PM 43.6925 -91.1075 130° Southeast 468 539 25,600 829 Climbing Minneapolis Center
Thu 12:34:52 PM 43.6083 -90.9708 130° Southeast 468 539 26,500 829 Climbing Minneapolis Center
Thu 12:35:54 PM 43.5247 -90.8356 130° Southeast 466 536 27,300 774 Climbing Minneapolis Center
Thu 12:36:56 PM 43.4414 -90.7011 130° Southeast 463 533 28,100 829 Climbing Minneapolis Center
Thu 12:37:57 PM 43.3583 -90.5681 131° Southeast 461 531 29,000 912 Climbing Minneapolis Center
Thu 12:39:01 PM 43.2581 -90.4092 131° Southeast 460 529 30,000 912 Climbing Minneapolis Center
Thu 12:40:02 PM 43.1756 -90.2772 131° Southeast 459 528 30,900 878 Climbing Minneapolis Center
Thu 12:41:04 PM 43.0842 -90.1322 131° Southeast 460 529 31,800 823 Climbing Minneapolis Center
Thu 12:42:06 PM 43.0006 -89.9981 130° Southeast 465 535 32,600 774 Climbing Minneapolis Center
Thu 12:43:08 PM 42.9278 -89.8506 124° Southeast 470 541 33,400 833 Climbing Minneapolis Center
Thu 12:44:30 PM 42.8256 -89.6436 124° Southeast 470 541 34,600 667 Climbing Chicago Center
Thu 12:45:32 PM 42.7542 -89.4956 123° Southeast 471 542 35,000 192 Climbing Chicago Center
Thu 12:46:35 PM 42.6794 -89.3444 124° Southeast 483 556 35,000  Level Chicago Center
Thu 12:47:36 PM 42.6022 -89.1903 124° Southeast 495 570 35,000  Level Chicago Center
Thu 12:48:38 PM 42.5092 -89.0039 124° Southeast 499 574 35,000  Level Chicago Center
Thu 12:49:39 PM 42.4317 -88.8469 124° Southeast 504 580 35,000  Level Chicago Center
Thu 12:50:41 PM 42.3536 -88.6919 124° Southeast 502 578 35,000  Level Chicago Center
Thu 12:51:43 PM 42.2944 -88.5333 117° Southeast 502 578 35,000  Level Chicago Center
Thu 12:52:45 PM 42.2822 -88.3386 95° East 519 597 35,000  Level Chicago Center
Thu 12:53:47 PM 42.2722 -88.1436 94° East 521 600 35,000  Level Chicago Center
Thu 12:54:48 PM 42.2597 -87.9097 94° East 519 597 35,000  Level Chicago Center
Thu 12:55:50 PM 42.2489 -87.7131 94° East 523 602 35,000  Level Chicago Center
Thu 12:56:52 PM 42.2372 -87.5175 95° East 524 603 35,000  Level Chicago Center
Thu 12:57:54 PM 42.2250 -87.3197 95° East 527 606 35,000  Level Chicago Center
Thu 12:58:56 PM 42.2139 -87.1222 94° East 529 609 35,000  Level Chicago Center
Thu 12:59:59 PM 42.1978 -86.8839 95° East 532 612 35,000  Level Chicago Center
Thu 01:01:01 PM 42.1844 -86.6833 95° East 536 617 35,000  Level Chicago Center
Thu 01:02:03 PM 42.1775 -86.5067 93° East 539 620 35,000  Level Chicago Center
Thu 01:03:05 PM 42.1597 -86.2658 96° East 540 621 35,000  Level Chicago Center
Thu 01:04:07 PM 42.1442 -86.0650 96° East 539 620 35,000  Level Chicago Center
Thu 01:05:09 PM 42.1300 -85.8656 95° East 537 618 35,000  Level Chicago Center
Thu 01:06:11 PM 42.1153 -85.6642 96° East 537 618 35,000  Level Chicago Center
Thu 01:07:13 PM 42.1014 -85.4622 95° East 538 619 35,000  Level Chicago Center
Thu 01:08:15 PM 42.0861 -85.2611 96° East 536 617 35,000  Level Chicago Center
Thu 01:09:17 PM 42.0694 -85.0572 96° East 542 624 35,000  Level Chicago Center
Thu 01:10:19 PM 42.0544 -84.8550 96° East 541 623 35,000  Level Chicago Center
Thu 01:11:20 PM 42.0375 -84.6544 96° East 540 621 35,000  Level Chicago Center
Thu 01:12:22 PM 42.0183 -84.4131 96° East 542 624 35,000  Level Chicago Center
Thu 01:12:52 PM 42.0092 -84.3300 98° East 540 621 35,000  Level Cleveland Center
Thu 01:13:54 PM 41.9889 -84.1006 97° East 541 623 35,000  Level Cleveland Center
Thu 01:14:55 PM 41.9725 -83.9008 96° East 543 625 35,000  Level Cleveland Center
Thu 01:15:57 PM 41.9942 -83.7067 81° East 536 617 35,000  Level Cleveland Center
Thu 01:16:59 PM 42.0447 -83.4978 72° East 535 616 35,000 145 Level Cleveland Center
Thu 01:18:01 PM 42.0906 -83.3061 72° East 535 616 35,300 677 Climbing Cleveland Center
Thu 01:19:03 PM 42.1364 -83.1117 72° East 528 608 36,400 829 Climbing Cleveland Center
Thu 01:20:04 PM 42.1800 -82.9306 72° East 517 595 37,000 293 Climbing Cleveland Center
Thu 01:21:06 PM 42.2228 -82.7444 73° East 521 600 37,000  Level Cleveland Center
Thu 01:22:08 PM 42.2675 -82.5556 72° East 530 610 37,000  Level Cleveland Center
Thu 01:23:10 PM 42.3122 -82.3619 73° East 540 621 37,000  Level Cleveland Center
Thu 01:24:11 PM 42.2975 -82.1594 96° East 550 633 37,000  Level Cleveland Center
Thu 01:25:13 PM 42.2058 -81.9892 126° Southeast 521 600 37,000  Level Cleveland Center
Thu 01:26:15 PM 42.0864 -81.8947 150° Southeast 494 568 37,000  Level Cleveland Center
Thu 01:27:17 PM 41.9639 -81.7469 138° Southeast 524 603 37,000  Level Cleveland Center
Thu 01:28:18 PM 41.9261 -81.5478 104° East 549 632 37,000  Level Cleveland Center
Thu 01:29:20 PM 41.9000 -81.3422 100° East 551 634 37,000  Level Cleveland Center
Thu 01:30:22 PM 41.8731 -81.1353 100° East 555 639 37,000  Level Cleveland Center
Thu 01:31:24 PM 41.8467 -80.9297 100° East 553 636 37,000  Level Cleveland Center
Thu 01:32:26 PM 41.8200 -80.7219 100° East 558 642 37,000  Level Cleveland Center
Thu 01:33:27 PM 41.7947 -80.5150 99° East 557 641 37,000  Level Cleveland Center
Thu 01:34:29 PM 41.7736 -80.3064 98° East 559 643 37,000  Level Cleveland Center
Thu 01:35:31 PM 41.7531 -80.1000 98° East 555 639 37,000  Level Cleveland Center
Thu 01:36:33 PM 41.7306 -79.8928 98° East 557 641 37,000  Level Cleveland Center
Thu 01:37:35 PM 41.7061 -79.6519 98° East 556 640 37,000  Level Cleveland Center
Thu 01:38:37 PM 41.6844 -79.4675 99° East 554 638 37,000  Level Cleveland Center
Thu 01:39:39 PM 41.6594 -79.2306 98° East 556 640 37,000  Level Cleveland Center
Thu 01:41:42 PM 41.6122 -78.8131 98° East 558 642 37,000  Level Cleveland Center
Thu 01:42:45 PM 41.5889 -78.6100 99° East 554 638 37,000 -290 Level Cleveland Center
Thu 01:43:46 PM 41.5647 -78.4053 99° East 556 640 36,400 -1,707 Descending Cleveland Center
Thu 01:44:48 PM 41.5403 -78.2036 99° East 551 634 33,500 -2,613 Descending Cleveland Center
Thu 01:45:50 PM 41.5169 -78.0069 99° East 541 623 31,000 -1,210 Descending Cleveland Center
Thu 01:46:52 PM 41.4903 -77.8139 100° East 532 612 31,000 -48 Level Cleveland Center
Thu 01:47:54 PM 41.4622 -77.6192 101° East 534 615 30,900 -767 Descending Cleveland Center
Thu 01:49:05 PM 41.4253 -77.3728 101° East 521 600 29,300 -1,557 Descending New York Center
Thu 01:50:05 PM 41.4014 -77.2044 101° East 489 563 27,500 -1,800 Descending New York Center
Thu 01:51:05 PM 41.3461 -77.0664 118° Southeast 444 511 25,700 -1,800 Descending New York Center
Thu 01:52:05 PM 41.2733 -76.9436 128° Southeast 432 497 23,900 -1,850 Descending New York Center
Thu 01:53:05 PM 41.2392 -76.7969 107° East 420 483 22,000 -1,900 Descending New York Center
Thu 01:54:05 PM 41.2197 -76.6492 100° East 406 467 20,100 -1,400 Descending New York Center
Thu 01:55:05 PM 41.1997 -76.5011 100° East 406 467 19,200 -850 Descending New York Center
Thu 01:56:05 PM 41.1853 -76.3703 98° East 400 460 18,400 -750 Descending New York Center
Thu 01:57:05 PM 41.1636 -76.2086 100° East 393 452 17,700 -850 Descending New York Center
Thu 01:58:05 PM 41.1453 -76.0639 100° East 393 452 16,700 -1,050 Descending New York Center
Thu 01:59:05 PM 41.1128 -75.9483 110° East 388 447 15,600 -1,050 Descending New York Center
Thu 02:00:05 PM 41.0808 -75.8222 109° East 369 425 14,600 -1,100 Descending New York Center
Thu 02:01:05 PM 41.0425 -75.6872 111° Southeast 351 404 13,400 -800 Descending New York Center
Thu 02:02:05 PM 41.0122 -75.5667 108° East 351 404 13,000 -550 Descending New York Center
Thu 02:03:05 PM 40.9806 -75.4683 113° Southeast 351 404 12,300 -1,150 Descending New York Center
Thu 02:04:05 PM 40.9406 -75.3228 110° East 351 404 10,700 -1,400 Descending New York Center
Thu 02:05:05 PM 40.9075 -75.2081 111° Southeast 346 398 9,500 -1,250 Descending New York Center
Thu 02:06:05 PM 40.8761 -75.0961 110° East 334 384 8,200 -1,250 Descending New York Center
Thu 02:07:05 PM 40.8506 -74.9986 109° East 323 372 7,000 -600 Descending New York Center
Thu 02:08:05 PM 40.8483 -74.8831 91° East 292 336 7,000  Level New York Center
Thu 02:09:05 PM 40.8392 -74.7839 97° East 283 326 7,000 -450 Level New York Center
Thu 02:10:05 PM 40.7694 -74.7522 161° South 234 269 6,100 -500 Descending New York Center
Thu 02:11:05 PM 40.7131 -74.7572 184° South 219 252 6,000 -50 Descending New York Center
Thu 02:12:05 PM 40.6567 -74.6992 142° Southeast 232 267 6,000  Level New York Center
Thu 02:13:05 PM 40.6044 -74.6389 139° Southeast 255 293 6,000  Level New York Center
Thu 02:14:10 PM 40.6000 -74.5333 93° East 259 298 6,000  Level New York TRACON
Thu 02:15:10 PM 40.6500 -74.5333 360° North 183 211 6,000  Level New York TRACON
Thu 02:16:10 PM 40.7000 -74.5500 346° North 172 198 6,000  Level New York TRACON
Thu 02:18:05 PM 40.7928 -74.5508 360° North 179 206 6,000 -67 Level New York Center
Thu 02:19:10 PM 40.8667 -74.5333 10° North 204 235 5,800 -324 Descending New York TRACON
Thu 02:21:10 PM 40.9500 -74.4333 42° Northeast 233 268 5,000 -225 Descending New York TRACON
Thu 02:23:10 PM 40.9500 -74.2667 90° East 260 299 4,900 -333 Descending New York TRACON
Thu 02:24:10 PM 40.9500 -74.1667 90° East 238 274 4,000 -367 Descending New York TRACON
Thu 02:26:10 PM 40.9000 -74.0500 120° Southeast 193 222 3,800 -300 Descending New York TRACON
Thu 02:27:10 PM 40.8500 -74.0667 194° South 163 188 3,100 -550 Descending New York TRACON
Thu 02:28:10 PM 40.8167 -74.0833 201° Southwest 159 183 2,700 -550 Descending New York TRACON
Thu 02:29:10 PM 40.7833 -74.1167 217° Southwest 154 177 2,000 -850 Descending New York TRACON
Thu 02:30:10 PM 40.7333 -74.1333 194° South 159 183 1,000 -900 Descending New York TRACON
Thu 02:31:10 PM 40.7000 -74.1667 217° Southwest 125 144 200 -800 Descending New York TRACON

Login

Don't have an account? Register now (free) for customized features, flight alerts, and more!